EGPFEGPC

Guest
Details From EGPF - Glasgow
To EGPC - Wick
Flight Number -
Tags generated
Created
Modified
Stats Distance 161 nm / 299 km
Max Altitude 13,400 ft / 4,084 m
Waypoints 3
Social Downloads 2
Likes 0
Share VATSIM

Download

Looking for another format? Having issues loading an existing format? Contact us
Advertisement - Login to hide

Notes

Basic altitude profile: - Ascent Rate: 2500ft/min - Ascent Speed: 250kts - Cruise Altitude: 35000ft - Cruise Speed: 420kts - Descent Rate: 1500ft/min - Descent Speed: 250kts Options: - Use NATs: yes - Use PACOTS: yes - Use low airways: yes - Use high airways: yes

Route

EGPF VADNO EGPC

ID Type Via Altitude Latitude Longitude Leg Dist Tot Dist Heading (true) Name
O EGPF APT - 0 ft / 0 m 55.87173˚ -4.43365˚ - 0 nm - Glasgow
VADNO FIX - 13,400 ft / 4,084 m 57.45306˚ -3.62722˚ 98 nm 98 nm 15° / 16° -
O EGPC APT - 0 ft / 0 m 58.45787˚ -3.09298˚ 62 nm 161 nm 16° / 16° Wick

Altitude Profile

Advertisement - Login to hide

EGPF

Details ICAO EGPF (GLA)
Name Glasgow
Region United Kingdom
Timezone Europe/London (UTC+1.0)
Stats Elevation 26 ft / 8 m (AMSL)
Location 55.871728° -4.433648°
Runways 1
Magnetic Variation 2.655° W

METAR

EGPF 270320Z AUTO 07011KT 9999 OVC011 11/09 Q1025

Decode

TAF

TAF EGPF 262254Z 2700/2724 08010KT 9999 SCT012 PROB40 2700/2709 3000 BR BKN005

Decode

Departure Runways

ID Width Length Bearing (true) Bearing (mag) Surface Threshold Offset Overrun Length
05 151 ft / 46 m 8,721 ft / 2,658 m 46.34° 48.99° Asphalt 0 ft / 0 m 499 ft / 152 m
23 151 ft / 46 m 8,721 ft / 2,658 m 226.37° 229.02° Asphalt 1,004 ft / 306 m 0 ft / 0 m

EGPC

Details ICAO EGPC (WIC)
Name Wick
Region United Kingdom
Timezone Europe/London (UTC+1.0)
Stats Elevation 126 ft / 38 m (AMSL)
Location 58.457866° -3.092981°
Runways 2
Magnetic Variation 2.546° W

METAR

EGPC 270320Z AUTO 04002KT 0150 FG VV/// 08/08 Q1029

Decode

TAF

Not found

Destination Runways

ID Width Length Bearing (true) Bearing (mag) Surface Threshold Offset Overrun Length
08 148 ft / 45 m 3,390 ft / 1,033 m 75.45° 78.00° Asphalt 0 ft / 0 m 0 ft / 0 m
13 148 ft / 45 m 5,978 ft / 1,822 m 127.02° 129.57° Asphalt 814 ft / 248 m 0 ft / 0 m
26 148 ft / 45 m 3,390 ft / 1,033 m 255.46° 258.01° Asphalt 0 ft / 0 m 0 ft / 0 m
31 148 ft / 45 m 5,978 ft / 1,822 m 307.04° 309.59° Asphalt 1,010 ft / 308 m 0 ft / 0 m

Popular Alternatives